Pyxis Ocean — 9V2598 — position and weather

sailwx.info

Track history (hours):
 
Tides and Currents Weather Stations Pressure Air Temp Water Temp Dewpoint Dewpoint Depression Visibility Wind Speed Wind Dir Waves Ship Positions

Pyxis Ocean

Last reported at 2018-May-10 02:59 UTC. Time now 2018-May-21 15:14 UTC.
Position N 00°11' W 050°45'.
Warning: this ship's position is 11 days out of date.

Length 229 m; draft 11.6 m.

Type: Cargo ship. MMSI: 563021600.

Date/timePositionNaut miles runAvg speedWind from/ knotsBaromVisibWave heightAir tempDewpointWater temp
2018-May-10 02:59N 00°11' W 050°45'3 5.0
2018-May-10 02:28N 00°11' W 050°47'1 3.0
2018-May-10 01:59N 00°10' W 050°49'2 5.2
2018-May-10 01:30N 00°10' W 050°51'2 5.0
2018-May-10 01:00N 00°10' W 050°54'2 5.0
2018-May-10 00:30N 00°09' W 050°56'3 5.0
2018-May-10 00:00N 00°07' W 050°58'1 3.0
2018-May-09 23:30N 00°06' W 050°58'1 2.1
2018-May-09 23:00N 00°05' W 050°59'2 3.2
2018-May-09 22:30N 00°04' W 050°60'2 3.9
2018-May-09 22:00N 00°02' W 051°00'3 5.0
2018-May-09 21:30S 00°00' W 051°02'3 6.4
2018-May-09 20:59S 00°03' W 051°04'2 4.3
2018-May-09 20:30S 00°04' W 051°06'0 0.3
2018-May-09 19:58S 00°04' W 051°06'0 0.1
2018-May-09 19:28S 00°04' W 051°06'0 0.0
2018-May-09 18:58S 00°04' W 051°06'0 0.0
2018-May-09 18:28S 00°04' W 051°06'0 0.1
2018-May-09 17:51S 00°04' W 051°06'0 0.4
2018-May-09 17:30S 00°04' W 051°06'0 0.2
2018-May-09 16:57S 00°04' W 051°06'0 0.1
2018-May-09 16:30S 00°04' W 051°06'1 1.1
2018-May-09 15:59S 00°03' W 051°05'2 4.1
2018-May-09 15:30S 00°02' W 051°04'2 4.2
2018-May-09 15:00S 00°01' W 051°02'2 4.1
2018-May-09 14:30N 00°01' W 051°01'2 3.8
2018-May-09 14:00S 00°01' W 051°01'4 8.7
2018-May-09 13:30S 00°06' W 051°00'613.1
2018-May-09 13:00S 00°12' W 051°02'30912.9
2018-May-08 13:05S 01°37' W 055°59'112.3
2018-May-08 12:59S 01°36' W 055°59'611.8
2018-May-08 12:30S 01°31' W 056°02'611.3
2018-May-08 12:00S 01°31' W 056°08'4 8.6
2018-May-08 11:31S 01°31' W 056°12'4 7.5
2018-May-08 11:00S 01°31' W 056°16'4 8.5
2018-May-08 10:30S 01°29' W 056°19'4 8.7
2018-May-08 10:00S 01°27' W 056°24'0 0.9
2018-May-08 09:29S 01°27' W 056°24'0 0.1
2018-May-08 08:59S 01°27' W 056°24'0 0.0
2018-May-08 08:29S 01°27' W 056°24'0 0.0
2018-May-08 07:59S 01°27' W 056°24'0 0.0
2018-May-08 07:29S 01°27' W 056°24'0 0.0
2018-May-08 06:59S 01°27' W 056°24'0 0.0
2018-May-08 06:29S 01°27' W 056°24'0 0.0
2018-May-08 05:59S 01°27' W 056°24'0 0.0
2018-May-08 05:29S 01°27' W 056°24'0 0.0
2018-May-08 04:59S 01°27' W 056°24'0 0.0
2018-May-08 04:29S 01°27' W 056°24'0 0.0
2018-May-08 03:56S 01°27' W 056°24'0 0.1
2018-May-08 03:29S 01°27' W 056°24'0 0.1
2018-May-08 02:59S 01°27' W 056°24'0 0.1
2018-May-08 02:29S 01°27' W 056°24'0 0.1
2018-May-08 02:00S 01°27' W 056°24'1 2.3
2018-May-08 01:30S 01°28' W 056°23'0 0.1
2018-May-08 00:56S 01°28' W 056°23'0 0.0
2018-May-08 00:29S 01°28' W 056°23'0 0.0
2018-May-07 23:59S 01°28' W 056°23'0 0.0
2018-May-07 23:29S 01°28' W 056°23'0 0.0
2018-May-07 22:59S 01°28' W 056°23'0 0.0
2018-May-07 22:29S 01°28' W 056°23'0 0.0
2018-May-07 21:59S 01°28' W 056°23'0 0.0
2018-May-07 21:29S 01°28' W 056°23'0 0.0
2018-May-07 20:59S 01°28' W 056°23'0 0.0
2018-May-07 20:29S 01°28' W 056°23'0 0.0
2018-May-07 19:59S 01°28' W 056°23'0 0.0
2018-May-07 19:29S 01°28' W 056°23'0 0.0
2018-May-07 18:59S 01°28' W 056°23'0 0.0
2018-May-07 18:26S 01°28' W 056°23'0 0.0
2018-May-07 17:59S 01°28' W 056°23'0 0.0
2018-May-07 17:26S 01°28' W 056°23'0 0.0
2018-May-07 16:59S 01°28' W 056°23'0 0.0
2018-May-07 16:29S 01°28' W 056°23'0 0.0
2018-May-07 15:59S 01°28' W 056°23'0 0.0
2018-May-07 15:30S 01°28' W 056°23'0 0.0
2018-May-07 14:59S 01°28' W 056°23'0 0.0
2018-May-07 14:29S 01°28' W 056°23'0 0.0
2018-May-07 13:59S 01°28' W 056°23'0 0.0
2018-May-07 13:29S 01°28' W 056°23'0 0.0
2018-May-07 12:59S 01°28' W 056°23'0 0.0
2018-May-07 12:29S 01°28' W 056°23'0 0.0
2018-May-07 11:59S 01°28' W 056°23'0 0.0
2018-May-07 11:29S 01°28' W 056°23'0 0.0
2018-May-07 10:59S 01°28' W 056°23'0 0.0
2018-May-07 10:29S 01°28' W 056°23'0 0.0
2018-May-07 09:59S 01°28' W 056°23'0 0.0
2018-May-07 09:29S 01°28' W 056°23'0 0.0
2018-May-07 08:59S 01°28' W 056°23'0 0.0
2018-May-07 08:29S 01°28' W 056°23'0 0.0
2018-May-07 07:59S 01°28' W 056°23'0 0.0
2018-May-07 07:29S 01°28' W 056°23'0 0.0
2018-May-07 06:59S 01°28' W 056°23'0 0.0
2018-May-07 06:29S 01°28' W 056°23'0 0.0
2018-May-07 05:59S 01°28' W 056°23'0 0.0
2018-May-07 05:29S 01°28' W 056°23'0 0.0
2018-May-07 04:59S 01°28' W 056°23'0 0.0
2018-May-07 04:29S 01°28' W 056°23'0 0.0
2018-May-07 03:59S 01°28' W 056°23'0 0.0
2018-May-07 03:29S 01°28' W 056°23'0 0.0
2018-May-07 02:59S 01°28' W 056°23'0 0.0
2018-May-07 02:29S 01°28' W 056°23'0 0.0
2018-May-07 01:59S 01°28' W 056°23'0 0.0
2018-May-07 01:29S 01°28' W 056°23'0 0.0
2018-May-07 00:59S 01°28' W 056°23'0 0.0
2018-May-07 00:29S 01°28' W 056°23'0 0.0
2018-May-06 23:59S 01°28' W 056°23'0 0.0
2018-May-06 23:29S 01°28' W 056°23'0 0.0
2018-May-06 22:59S 01°28' W 056°23'0 0.0
2018-May-06 22:29S 01°28' W 056°23'0 0.0
2018-May-06 21:59S 01°28' W 056°23'0 0.0
2018-May-06 21:29S 01°28' W 056°23'0 0.0
2018-May-06 20:59S 01°28' W 056°23'0 0.0
2018-May-06 20:29S 01°28' W 056°23'0 0.0
2018-May-06 19:59S 01°28' W 056°23'0 0.0
2018-May-06 19:29S 01°28' W 056°23'0 0.0
2018-May-06 18:59S 01°28' W 056°23'0 0.0
2018-May-06 18:29S 01°28' W 056°23'0 0.0
2018-May-06 18:00S 01°28' W 056°23'1 1.1
2018-May-06 17:30S 01°28' W 056°22'0 0.2
2018-May-06 16:59S 01°28' W 056°22'0 0.0
2018-May-06 16:29S 01°28' W 056°22'0 0.0
2018-May-06 15:59S 01°28' W 056°22'0 0.0
2018-May-06 15:29S 01°28' W 056°22'0 0.0
2018-May-06 14:59S 01°28' W 056°22'0 0.0
2018-May-06 14:29S 01°28' W 056°22'0 0.0
2018-May-06 13:59S 01°28' W 056°22'0 0.0
2018-May-06 13:29S 01°28' W 056°22'0 0.0
2018-May-06 12:59S 01°28' W 056°22'0 0.0
2018-May-06 12:29S 01°28' W 056°22'0 0.0
2018-May-06 11:59S 01°28' W 056°22'0 0.0
2018-May-06 11:30S 01°28' W 056°22'0 0.0
2018-May-06 10:59S 01°28' W 056°22'0 0.0
2018-May-06 10:29S 01°28' W 056°22'0 0.0
2018-May-06 09:59S 01°28' W 056°22'0 0.0
2018-May-06 09:29S 01°28' W 056°22'0 0.0
2018-May-06 08:59S 01°28' W 056°22'0 0.0
2018-May-06 08:29S 01°28' W 056°22'0 0.0
2018-May-06 07:59S 01°28' W 056°22'0 0.0
2018-May-06 07:29S 01°28' W 056°22'0 0.0
2018-May-06 06:59S 01°28' W 056°22'0 0.0
2018-May-06 06:29S 01°28' W 056°22'0 0.0
2018-May-06 05:59S 01°28' W 056°22'0 0.0
2018-May-06 05:29S 01°28' W 056°22'0 0.0
2018-May-06 04:59S 01°28' W 056°22'0 0.0
2018-May-06 04:29S 01°28' W 056°22'0 0.0
2018-May-06 03:59S 01°28' W 056°22'0 0.0
2018-May-06 03:29S 01°28' W 056°22'0 0.0
2018-May-06 02:59S 01°28' W 056°22'0 0.0
2018-May-06 02:29S 01°28' W 056°22'0 0.0
2018-May-06 01:59S 01°28' W 056°22'0 0.0
2018-May-06 01:29S 01°28' W 056°22'0 0.0
2018-May-06 00:59S 01°28' W 056°22'0 0.0
2018-May-06 00:29S 01°28' W 056°22'0 0.2
2018-May-06 00:00S 01°28' W 056°22'1 2.0
2018-May-05 23:30S 01°28' W 056°21'2 4.3
2018-May-05 23:00S 01°29' W 056°19'4 8.5
2018-May-05 22:30S 01°31' W 056°16'4 8.5
2018-May-05 22:00S 01°31' W 056°12'612.5
2018-May-05 21:31S 01°31' W 056°05'611.9
2018-May-05 21:00S 01°34' W 056°00'713.7
2018-May-05 20:30S 01°40' W 055°57'712.5
2018-May-05 19:59S 01°46' W 055°53'289 9.1
2018-May-04 12:23S 00°14' W 051°19'513.0
2018-May-04 12:00S 00°11' W 051°15'613.0
2018-May-04 11:30S 00°07' W 051°11'611.5
2018-May-04 11:00S 00°04' W 051°06'2 4.7
2018-May-04 10:30S 00°02' W 051°04'5 9.1
2018-May-04 10:00N 00°01' W 051°01'2 4.2
2018-May-04 09:27N 00°02' W 050°59'0 0.1
2018-May-04 08:57N 00°02' W 050°59'0 0.1
2018-May-04 04:00N 00°03' W 050°59'0 0.0
2018-May-04 02:54N 00°03' W 050°59'0 0.0
2018-May-04 02:30N 00°03' W 050°59'0 0.0
2018-May-04 01:51N 00°03' W 050°59'0 0.1
2018-May-04 01:03N 00°03' W 050°59'0 0.9
2018-May-04 00:57N 00°03' W 050°59'0 0.0
2018-May-04 00:15N 00°03' W 050°59'0 0.1
2018-May-03 23:57N 00°03' W 050°59'0 0.0
2018-May-03 23:21N 00°03' W 050°59'0 0.1
2018-May-03 22:57N 00°03' W 050°59'0 0.1
2018-May-03 22:27N 00°03' W 050°59'0 0.0
2018-May-03 21:57N 00°03' W 050°59'0 0.2
2018-May-03 21:27N 00°02' W 050°59'0 0.1
2018-May-03 20:45N 00°02' W 050°59'0 0.0
2018-May-03 20:27N 00°02' W 050°59'0 0.0
2018-May-03 19:57N 00°02' W 050°59'0 0.0
2018-May-03 19:27N 00°02' W 050°59'0 0.0
2018-May-03 18:57N 00°02' W 050°59'0 0.2
2018-May-03 18:09N 00°03' W 050°59'0 0.2
2018-May-03 17:51N 00°03' W 050°59'0 0.1
2018-May-03 17:27N 00°03' W 050°59'0 0.0
2018-May-03 16:57N 00°03' W 050°59'0 0.0
2018-May-03 16:27N 00°03' W 050°59'0 0.0
2018-May-03 15:57N 00°03' W 050°59'0 0.0
2018-May-03 15:27N 00°03' W 050°59'0 0.0
2018-May-03 15:00N 00°03' W 050°59'0 0.0
2018-May-03 14:30N 00°03' W 050°59'0 0.0
2018-May-03 14:00N 00°03' W 050°59'0 0.0
2018-May-03 13:27N 00°03' W 050°59'0 0.0
2018-May-03 13:00N 00°03' W 050°59'0 0.0
2018-May-03 12:30N 00°03' W 050°59'0 0.0
2018-May-03 12:00N 00°03' W 050°59'0 0.0
2018-May-03 11:30N 00°03' W 050°59'0 0.0
2018-May-03 11:00N 00°03' W 050°59'0 0.0
2018-May-03 10:30N 00°03' W 050°59'0 0.2
2018-May-03 10:00N 00°03' W 050°59'0 0.0
2018-May-03 03:48N 00°03' W 050°59'0 0.0
2018-May-03 03:30N 00°03' W 050°59'0 0.0
2018-May-03 02:57N 00°03' W 050°59'0 0.0
2018-May-03 02:27N 00°03' W 050°59'0 0.0
2018-May-03 01:57N 00°03' W 050°59'0 0.0
2018-May-03 01:27N 00°03' W 050°59'0 0.0
2018-May-03 00:51N 00°03' W 050°59'0 0.0
2018-May-03 00:27N 00°03' W 050°59'0 0.0
2018-May-02 23:51N 00°03' W 050°59'0 0.0
2018-May-02 23:15N 00°03' W 050°59'0 0.0
2018-May-02 22:57N 00°03' W 050°59'0 0.0
2018-May-02 22:27N 00°03' W 050°59'0 0.4
2018-May-02 21:57N 00°02' W 050°59'0 0.1
2018-May-02 21:27N 00°02' W 050°59'0 0.0
2018-May-02 20:51N 00°02' W 050°59'0 0.0
2018-May-02 20:27N 00°02' W 050°59'0 0.0
2018-May-02 19:48N 00°02' W 050°59'0 0.0
2018-May-02 19:30N 00°02' W 050°59'0 0.0
2018-May-02 19:00N 00°02' W 050°59'0 0.0
2018-May-02 18:30N 00°02' W 050°59'0 0.0
2018-May-02 17:57N 00°02' W 050°59'0 0.3
2018-May-02 17:21N 00°03' W 050°59'0 0.3
2018-May-02 17:00N 00°03' W 050°59'0 0.1
2018-May-02 16:30N 00°03' W 050°59'0 0.0
2018-May-02 16:00N 00°03' W 050°59'0 0.0
2018-May-02 15:30N 00°03' W 050°59'0 0.0
2018-May-02 15:00N 00°03' W 050°59'0 0.0
2018-May-02 11:57N 00°03' W 050°59'0 0.0
2018-May-02 11:27N 00°03' W 050°59'0 0.0
2018-May-02 10:57N 00°03' W 050°59'0 0.0
2018-May-02 10:27N 00°03' W 050°59'0 0.1
2018-May-02 09:51N 00°02' W 050°59'0 0.1
2018-May-02 09:27N 00°02' W 050°59'0 0.3
2018-May-02 08:57N 00°02' W 050°59'0 0.1
2018-May-02 08:21N 00°02' W 050°59'0 0.0
2018-May-02 08:00N 00°02' W 050°59'0 0.0
2018-May-02 07:30N 00°02' W 050°59'0 0.0
2018-May-02 07:00N 00°02' W 050°59'0 0.0
2018-May-02 06:30N 00°02' W 050°59'0 0.0
2018-May-02 06:00N 00°02' W 050°59'0 0.2
2018-May-02 05:30N 00°02' W 050°59'0 0.4
2018-May-02 05:00N 00°03' W 050°59'0 0.1
2018-May-02 04:30N 00°03' W 050°59'0 0.0
2018-May-02 04:00N 00°03' W 050°59'0 0.0
2018-May-02 03:27N 00°03' W 050°59'0 0.0
2018-May-02 02:57N 00°03' W 050°59'0 0.0
2018-May-02 02:27N 00°03' W 050°59'0 0.0
2018-May-02 01:54N 00°03' W 050°59'0 0.0
2018-May-02 01:30N 00°03' W 050°59'0 0.0
2018-May-02 01:00N 00°03' W 050°59'0 0.0
2018-May-02 00:30N 00°03' W 050°59'0 0.0
2018-May-01 23:54N 00°03' W 050°59'0 0.0
2018-May-01 23:27N 00°03' W 050°59'0 0.0
2018-May-01 22:57N 00°03' W 050°59'0 0.0
2018-May-01 22:27N 00°03' W 050°59'0 0.0
2018-May-01 21:57N 00°03' W 050°59'0 0.2
2018-May-01 21:21N 00°03' W 050°59'0 0.3
2018-May-01 20:57N 00°02' W 050°59'0 0.1
2018-May-01 19:51N 00°02' W 050°59'0 0.0
2018-May-01 19:27N 00°02' W 050°59'0 0.0
2018-May-01 18:57N 00°02' W 050°59'0 0.0
2018-May-01 18:27N 00°02' W 050°59'0 0.0
2018-May-01 17:57N 00°02' W 050°59'0 0.0
2018-May-01 17:27N 00°02' W 050°59'0 0.3
2018-May-01 16:57N 00°03' W 050°59'0 0.2
2018-May-01 16:30N 00°03' W 050°59'0 0.1
2018-May-01 16:00N 00°03' W 050°59'0 0.0
2018-May-01 15:27N 00°03' W 050°59'0 0.0
2018-May-01 15:00N 00°03' W 050°59'0 0.0
2018-May-01 14:27N 00°03' W 050°59'0 0.0
2018-May-01 13:57N 00°03' W 050°59'0 0.0
2018-May-01 13:24N 00°03' W 050°59'0 0.0
2018-May-01 13:00N 00°03' W 050°59'0 0.0
2018-May-01 12:30N 00°03' W 050°59'0 0.0
2018-May-01 11:48N 00°03' W 050°59'0 0.0
2018-May-01 11:24N 00°03' W 050°59'0 0.0
2018-May-01 10:54N 00°03' W 050°59'0 0.0
2018-May-01 10:30N 00°03' W 050°59'0 0.0
2018-May-01 10:00N 00°03' W 050°59'0 0.0
2018-May-01 09:30N 00°03' W 050°59'0 0.1
2018-May-01 09:00N 00°02' W 050°59'0 0.4
2018-May-01 08:30N 00°02' W 050°59'0 0.1
2018-May-01 08:00N 00°02' W 050°59'0 0.0
2018-May-01 07:30N 00°02' W 050°59'0 0.0
2018-May-01 07:00N 00°02' W 050°59'0 0.0
2018-May-01 06:30N 00°02' W 050°59'0 0.0
2018-May-01 05:54N 00°02' W 050°59'0 0.0
2018-May-01 05:30N 00°02' W 050°59'0 0.0
2018-May-01 05:00N 00°02' W 050°59'0 0.4
2018-May-01 04:24N 00°03' W 050°59'0 0.1
2018-May-01 03:54N 00°03' W 050°59'0 0.0
2018-May-01 03:21N 00°03' W 050°59'0 0.1
2018-May-01 03:00N 00°03' W 050°59'0 0.0
2018-May-01 02:30N 00°03' W 050°59'0 0.0
2018-May-01 01:57N 00°03' W 050°59'0 0.0
2018-May-01 01:24N 00°03' W 050°59'0 0.0
2018-May-01 00:54N 00°03' W 050°59'0 0.0
2018-May-01 00:30N 00°03' W 050°59'0 0.1
2018-May-01 00:00N 00°03' W 050°59'1 1.6
2018-Apr-30 23:30N 00°02' W 050°59'4 8.4
2018-Apr-30 22:59S 00°01' W 051°02'510.1
2018-Apr-30 22:30S 00°04' W 051°06'0 0.8
2018-Apr-30 21:59S 00°04' W 051°07'0 0.0
2018-Apr-30 21:29S 00°04' W 051°07'0 0.2
2018-Apr-30 20:53S 00°04' W 051°07'0 0.2
2018-Apr-30 19:35S 00°04' W 051°07'0 0.0
2018-Apr-30 19:29S 00°04' W 051°07'0 0.0
2018-Apr-30 19:00S 00°04' W 051°07'0 0.0
2018-Apr-30 18:29S 00°04' W 051°07'0 0.0
2018-Apr-30 18:00S 00°04' W 051°07'0 0.1
2018-Apr-30 17:24S 00°04' W 051°07'1 1.9
2018-Apr-30 17:00S 00°04' W 051°06'2 3.9
2018-Apr-30 16:30S 00°03' W 051°05'3 6.8
2018-Apr-30 15:59S 00°01' W 051°02'3 5.4
2018-Apr-30 15:28N 00°02' W 051°01'3 5.8
2018-Apr-30 15:00N 00°04' W 050°59'3 5.5
2018-Apr-30 14:30N 00°06' W 050°58'2 4.2
2018-Apr-30 14:00N 00°08' W 050°57'3 5.1
2018-Apr-30 13:30N 00°09' W 050°55'2 4.2
2018-Apr-30 13:00N 00°10' W 050°53'3 6.1
2018-Apr-30 12:28N 00°10' W 050°49'  
Track history (hours):
 
Tides and Currents Weather Stations Pressure Air Temp Water Temp Dewpoint Dewpoint Depression Visibility Wind Speed Wind Dir Waves Ship Positions

Pyxis Ocean

Last reported at 2018-May-10 02:59 UTC. Time now 2018-May-21 15:14 UTC.
Position N 00°11' W 050°45'.
Warning: this ship's position is 11 days out of date.

Length 229 m; draft 11.6 m.

Type: Cargo ship. MMSI: 563021600.

Date/timePositionNaut miles runAvg speedWind from/ knotsBaromVisibWave heightAir tempDewpointWater temp
2018-May-10 02:59N 00°11' W 050°45'3 5.0
2018-May-10 02:28N 00°11' W 050°47'1 3.0
2018-May-10 01:59N 00°10' W 050°49'2 5.2
2018-May-10 01:30N 00°10' W 050°51'2 5.0
2018-May-10 01:00N 00°10' W 050°54'2 5.0
2018-May-10 00:30N 00°09' W 050°56'3 5.0
2018-May-10 00:00N 00°07' W 050°58'1 3.0
2018-May-09 23:30N 00°06' W 050°58'1 2.1
2018-May-09 23:00N 00°05' W 050°59'2 3.2
2018-May-09 22:30N 00°04' W 050°60'2 3.9
2018-May-09 22:00N 00°02' W 051°00'3 5.0
2018-May-09 21:30S 00°00' W 051°02'3 6.4
2018-May-09 20:59S 00°03' W 051°04'2 4.3
2018-May-09 20:30S 00°04' W 051°06'0 0.3
2018-May-09 19:58S 00°04' W 051°06'0 0.1
2018-May-09 19:28S 00°04' W 051°06'0 0.0
2018-May-09 18:58S 00°04' W 051°06'0 0.0
2018-May-09 18:28S 00°04' W 051°06'0 0.1
2018-May-09 17:51S 00°04' W 051°06'0 0.4
2018-May-09 17:30S 00°04' W 051°06'0 0.2
2018-May-09 16:57S 00°04' W 051°06'0 0.1
2018-May-09 16:30S 00°04' W 051°06'1 1.1
2018-May-09 15:59S 00°03' W 051°05'2 4.1
2018-May-09 15:30S 00°02' W 051°04'2 4.2
2018-May-09 15:00S 00°01' W 051°02'2 4.1
2018-May-09 14:30N 00°01' W 051°01'2 3.8
2018-May-09 14:00S 00°01' W 051°01'4 8.7
2018-May-09 13:30S 00°06' W 051°00'613.1
2018-May-09 13:00S 00°12' W 051°02'30912.9
2018-May-08 13:05S 01°37' W 055°59'112.3
2018-May-08 12:59S 01°36' W 055°59'611.8
2018-May-08 12:30S 01°31' W 056°02'611.3
2018-May-08 12:00S 01°31' W 056°08'4 8.6
2018-May-08 11:31S 01°31' W 056°12'4 7.5
2018-May-08 11:00S 01°31' W 056°16'4 8.5
2018-May-08 10:30S 01°29' W 056°19'4 8.7
2018-May-08 10:00S 01°27' W 056°24'0 0.9
2018-May-08 09:29S 01°27' W 056°24'0 0.1
2018-May-08 08:59S 01°27' W 056°24'0 0.0
2018-May-08 08:29S 01°27' W 056°24'0 0.0
2018-May-08 07:59S 01°27' W 056°24'0 0.0
2018-May-08 07:29S 01°27' W 056°24'0 0.0
2018-May-08 06:59S 01°27' W 056°24'0 0.0
2018-May-08 06:29S 01°27' W 056°24'0 0.0
2018-May-08 05:59S 01°27' W 056°24'0 0.0
2018-May-08 05:29S 01°27' W 056°24'0 0.0
2018-May-08 04:59S 01°27' W 056°24'0 0.0
2018-May-08 04:29S 01°27' W 056°24'0 0.0
2018-May-08 03:56S 01°27' W 056°24'0 0.1
2018-May-08 03:29S 01°27' W 056°24'0 0.1
2018-May-08 02:59S 01°27' W 056°24'0 0.1
2018-May-08 02:29S 01°27' W 056°24'0 0.1
2018-May-08 02:00S 01°27' W 056°24'1 2.3
2018-May-08 01:30S 01°28' W 056°23'0 0.1
2018-May-08 00:56S 01°28' W 056°23'0 0.0
2018-May-08 00:29S 01°28' W 056°23'0 0.0
2018-May-07 23:59S 01°28' W 056°23'0 0.0
2018-May-07 23:29S 01°28' W 056°23'0 0.0
2018-May-07 22:59S 01°28' W 056°23'0 0.0
2018-May-07 22:29S 01°28' W 056°23'0 0.0
2018-May-07 21:59S 01°28' W 056°23'0 0.0
2018-May-07 21:29S 01°28' W 056°23'0 0.0
2018-May-07 20:59S 01°28' W 056°23'0 0.0
2018-May-07 20:29S 01°28' W 056°23'0 0.0
2018-May-07 19:59S 01°28' W 056°23'0 0.0
2018-May-07 19:29S 01°28' W 056°23'0 0.0
2018-May-07 18:59S 01°28' W 056°23'0 0.0
2018-May-07 18:26S 01°28' W 056°23'0 0.0
2018-May-07 17:59S 01°28' W 056°23'0 0.0
2018-May-07 17:26S 01°28' W 056°23'0 0.0
2018-May-07 16:59S 01°28' W 056°23'0 0.0
2018-May-07 16:29S 01°28' W 056°23'0 0.0
2018-May-07 15:59S 01°28' W 056°23'0 0.0
2018-May-07 15:30S 01°28' W 056°23'0 0.0
2018-May-07 14:59S 01°28' W 056°23'0 0.0
2018-May-07 14:29S 01°28' W 056°23'0 0.0
2018-May-07 13:59S 01°28' W 056°23'0 0.0
2018-May-07 13:29S 01°28' W 056°23'0 0.0
2018-May-07 12:59S 01°28' W 056°23'0 0.0
2018-May-07 12:29S 01°28' W 056°23'0 0.0
2018-May-07 11:59S 01°28' W 056°23'0 0.0
2018-May-07 11:29S 01°28' W 056°23'0 0.0
2018-May-07 10:59S 01°28' W 056°23'0 0.0
2018-May-07 10:29S 01°28' W 056°23'0 0.0
2018-May-07 09:59S 01°28' W 056°23'0 0.0
2018-May-07 09:29S 01°28' W 056°23'0 0.0
2018-May-07 08:59S 01°28' W 056°23'0 0.0
2018-May-07 08:29S 01°28' W 056°23'0 0.0
2018-May-07 07:59S 01°28' W 056°23'0 0.0
2018-May-07 07:29S 01°28' W 056°23'0 0.0
2018-May-07 06:59S 01°28' W 056°23'0 0.0
2018-May-07 06:29S 01°28' W 056°23'0 0.0
2018-May-07 05:59S 01°28' W 056°23'0 0.0
2018-May-07 05:29S 01°28' W 056°23'0 0.0
2018-May-07 04:59S 01°28' W 056°23'0 0.0
2018-May-07 04:29S 01°28' W 056°23'0 0.0
2018-May-07 03:59S 01°28' W 056°23'0 0.0
2018-May-07 03:29S 01°28' W 056°23'0 0.0
2018-May-07 02:59S 01°28' W 056°23'0 0.0
2018-May-07 02:29S 01°28' W 056°23'0 0.0
2018-May-07 01:59S 01°28' W 056°23'0 0.0
2018-May-07 01:29S 01°28' W 056°23'0 0.0
2018-May-07 00:59S 01°28' W 056°23'0 0.0
2018-May-07 00:29S 01°28' W 056°23'0 0.0
2018-May-06 23:59S 01°28' W 056°23'0 0.0
2018-May-06 23:29S 01°28' W 056°23'0 0.0
2018-May-06 22:59S 01°28' W 056°23'0 0.0
2018-May-06 22:29S 01°28' W 056°23'0 0.0
2018-May-06 21:59S 01°28' W 056°23'0 0.0
2018-May-06 21:29S 01°28' W 056°23'0 0.0
2018-May-06 20:59S 01°28' W 056°23'0 0.0
2018-May-06 20:29S 01°28' W 056°23'0 0.0
2018-May-06 19:59S 01°28' W 056°23'0 0.0
2018-May-06 19:29S 01°28' W 056°23'0 0.0
2018-May-06 18:59S 01°28' W 056°23'0 0.0
2018-May-06 18:29S 01°28' W 056°23'0 0.0
2018-May-06 18:00S 01°28' W 056°23'1 1.1
2018-May-06 17:30S 01°28' W 056°22'0 0.2
2018-May-06 16:59S 01°28' W 056°22'0 0.0
2018-May-06 16:29S 01°28' W 056°22'0 0.0
2018-May-06 15:59S 01°28' W 056°22'0 0.0
2018-May-06 15:29S 01°28' W 056°22'0 0.0
2018-May-06 14:59S 01°28' W 056°22'0 0.0
2018-May-06 14:29S 01°28' W 056°22'0 0.0
2018-May-06 13:59S 01°28' W 056°22'0 0.0
2018-May-06 13:29S 01°28' W 056°22'0 0.0
2018-May-06 12:59S 01°28' W 056°22'0 0.0
2018-May-06 12:29S 01°28' W 056°22'0 0.0
2018-May-06 11:59S 01°28' W 056°22'0 0.0
2018-May-06 11:30S 01°28' W 056°22'0 0.0
2018-May-06 10:59S 01°28' W 056°22'0 0.0
2018-May-06 10:29S 01°28' W 056°22'0 0.0
2018-May-06 09:59S 01°28' W 056°22'0 0.0
2018-May-06 09:29S 01°28' W 056°22'0 0.0
2018-May-06 08:59S 01°28' W 056°22'0 0.0
2018-May-06 08:29S 01°28' W 056°22'0 0.0
2018-May-06 07:59S 01°28' W 056°22'0 0.0
2018-May-06 07:29S 01°28' W 056°22'0 0.0
2018-May-06 06:59S 01°28' W 056°22'0 0.0
2018-May-06 06:29S 01°28' W 056°22'0 0.0
2018-May-06 05:59S 01°28' W 056°22'0 0.0
2018-May-06 05:29S 01°28' W 056°22'0 0.0
2018-May-06 04:59S 01°28' W 056°22'0 0.0
2018-May-06 04:29S 01°28' W 056°22'0 0.0
2018-May-06 03:59S 01°28' W 056°22'0 0.0
2018-May-06 03:29S 01°28' W 056°22'0 0.0
2018-May-06 02:59S 01°28' W 056°22'0 0.0
2018-May-06 02:29S 01°28' W 056°22'0 0.0
2018-May-06 01:59S 01°28' W 056°22'0 0.0
2018-May-06 01:29S 01°28' W 056°22'0 0.0
2018-May-06 00:59S 01°28' W 056°22'0 0.0
2018-May-06 00:29S 01°28' W 056°22'0 0.2
2018-May-06 00:00S 01°28' W 056°22'1 2.0
2018-May-05 23:30S 01°28' W 056°21'2 4.3
2018-May-05 23:00S 01°29' W 056°19'4 8.5
2018-May-05 22:30S 01°31' W 056°16'4 8.5
2018-May-05 22:00S 01°31' W 056°12'612.5
2018-May-05 21:31S 01°31' W 056°05'611.9
2018-May-05 21:00S 01°34' W 056°00'713.7
2018-May-05 20:30S 01°40' W 055°57'712.5
2018-May-05 19:59S 01°46' W 055°53'289 9.1
2018-May-04 12:23S 00°14' W 051°19'513.0
2018-May-04 12:00S 00°11' W 051°15'613.0
2018-May-04 11:30S 00°07' W 051°11'611.5
2018-May-04 11:00S 00°04' W 051°06'2 4.7
2018-May-04 10:30S 00°02' W 051°04'5 9.1
2018-May-04 10:00N 00°01' W 051°01'2 4.2
2018-May-04 09:27N 00°02' W 050°59'0 0.1
2018-May-04 08:57N 00°02' W 050°59'0 0.1
2018-May-04 04:00N 00°03' W 050°59'0 0.0
2018-May-04 02:54N 00°03' W 050°59'0 0.0
2018-May-04 02:30N 00°03' W 050°59'0 0.0
2018-May-04 01:51N 00°03' W 050°59'0 0.1
2018-May-04 01:03N 00°03' W 050°59'0 0.9
2018-May-04 00:57N 00°03' W 050°59'0 0.0
2018-May-04 00:15N 00°03' W 050°59'0 0.1
2018-May-03 23:57N 00°03' W 050°59'0 0.0
2018-May-03 23:21N 00°03' W 050°59'0 0.1
2018-May-03 22:57N 00°03' W 050°59'0 0.1
2018-May-03 22:27N 00°03' W 050°59'0 0.0
2018-May-03 21:57N 00°03' W 050°59'0 0.2
2018-May-03 21:27N 00°02' W 050°59'0 0.1
2018-May-03 20:45N 00°02' W 050°59'0 0.0
2018-May-03 20:27N 00°02' W 050°59'0 0.0
2018-May-03 19:57N 00°02' W 050°59'0 0.0
2018-May-03 19:27N 00°02' W 050°59'0 0.0
2018-May-03 18:57N 00°02' W 050°59'0 0.2
2018-May-03 18:09N 00°03' W 050°59'0 0.2
2018-May-03 17:51N 00°03' W 050°59'0 0.1
2018-May-03 17:27N 00°03' W 050°59'0 0.0
2018-May-03 16:57N 00°03' W 050°59'0 0.0
2018-May-03 16:27N 00°03' W 050°59'0 0.0
2018-May-03 15:57N 00°03' W 050°59'0 0.0
2018-May-03 15:27N 00°03' W 050°59'0 0.0
2018-May-03 15:00N 00°03' W 050°59'0 0.0
2018-May-03 14:30N 00°03' W 050°59'0 0.0
2018-May-03 14:00N 00°03' W 050°59'0 0.0
2018-May-03 13:27N 00°03' W 050°59'0 0.0
2018-May-03 13:00N 00°03' W 050°59'0 0.0
2018-May-03 12:30N 00°03' W 050°59'0 0.0
2018-May-03 12:00N 00°03' W 050°59'0 0.0
2018-May-03 11:30N 00°03' W 050°59'0 0.0
2018-May-03 11:00N 00°03' W 050°59'0 0.0
2018-May-03 10:30N 00°03' W 050°59'0 0.2
2018-May-03 10:00N 00°03' W 050°59'0 0.0
2018-May-03 03:48N 00°03' W 050°59'0 0.0
2018-May-03 03:30N 00°03' W 050°59'0 0.0
2018-May-03 02:57N 00°03' W 050°59'0 0.0
2018-May-03 02:27N 00°03' W 050°59'0 0.0
2018-May-03 01:57N 00°03' W 050°59'0 0.0
2018-May-03 01:27N 00°03' W 050°59'0 0.0
2018-May-03 00:51N 00°03' W 050°59'0 0.0
2018-May-03 00:27N 00°03' W 050°59'0 0.0
2018-May-02 23:51N 00°03' W 050°59'0 0.0
2018-May-02 23:15N 00°03' W 050°59'0 0.0
2018-May-02 22:57N 00°03' W 050°59'0 0.0
2018-May-02 22:27N 00°03' W 050°59'0 0.4
2018-May-02 21:57N 00°02' W 050°59'0 0.1
2018-May-02 21:27N 00°02' W 050°59'0 0.0
2018-May-02 20:51N 00°02' W 050°59'0 0.0
2018-May-02 20:27N 00°02' W 050°59'0 0.0
2018-May-02 19:48N 00°02' W 050°59'0 0.0
2018-May-02 19:30N 00°02' W 050°59'0 0.0
2018-May-02 19:00N 00°02' W 050°59'0 0.0
2018-May-02 18:30N 00°02' W 050°59'0 0.0
2018-May-02 17:57N 00°02' W 050°59'0 0.3
2018-May-02 17:21N 00°03' W 050°59'0 0.3
2018-May-02 17:00N 00°03' W 050°59'0 0.1
2018-May-02 16:30N 00°03' W 050°59'0 0.0
2018-May-02 16:00N 00°03' W 050°59'0 0.0
2018-May-02 15:30N 00°03' W 050°59'0 0.0
2018-May-02 15:00N 00°03' W 050°59'0 0.0
2018-May-02 11:57N 00°03' W 050°59'0 0.0
2018-May-02 11:27N 00°03' W 050°59'0 0.0
2018-May-02 10:57N 00°03' W 050°59'0 0.0
2018-May-02 10:27N 00°03' W 050°59'0 0.1
2018-May-02 09:51N 00°02' W 050°59'0 0.1
2018-May-02 09:27N 00°02' W 050°59'0 0.3
2018-May-02 08:57N 00°02' W 050°59'0 0.1
2018-May-02 08:21N 00°02' W 050°59'0 0.0
2018-May-02 08:00N 00°02' W 050°59'0 0.0
2018-May-02 07:30N 00°02' W 050°59'0 0.0
2018-May-02 07:00N 00°02' W 050°59'0 0.0
2018-May-02 06:30N 00°02' W 050°59'0 0.0
2018-May-02 06:00N 00°02' W 050°59'0 0.2
2018-May-02 05:30N 00°02' W 050°59'0 0.4
2018-May-02 05:00N 00°03' W 050°59'0 0.1
2018-May-02 04:30N 00°03' W 050°59'0 0.0
2018-May-02 04:00N 00°03' W 050°59'0 0.0
2018-May-02 03:27N 00°03' W 050°59'0 0.0
2018-May-02 02:57N 00°03' W 050°59'0 0.0
2018-May-02 02:27N 00°03' W 050°59'0 0.0
2018-May-02 01:54N 00°03' W 050°59'0 0.0
2018-May-02 01:30N 00°03' W 050°59'0 0.0
2018-May-02 01:00N 00°03' W 050°59'0 0.0
2018-May-02 00:30N 00°03' W 050°59'0 0.0
2018-May-01 23:54N 00°03' W 050°59'0 0.0
2018-May-01 23:27N 00°03' W 050°59'0 0.0
2018-May-01 22:57N 00°03' W 050°59'0 0.0
2018-May-01 22:27N 00°03' W 050°59'0 0.0
2018-May-01 21:57N 00°03' W 050°59'0 0.2
2018-May-01 21:21N 00°03' W 050°59'0 0.3
2018-May-01 20:57N 00°02' W 050°59'0 0.1
2018-May-01 19:51N 00°02' W 050°59'0 0.0
2018-May-01 19:27N 00°02' W 050°59'0 0.0
2018-May-01 18:57N 00°02' W 050°59'0 0.0
2018-May-01 18:27N 00°02' W 050°59'0 0.0
2018-May-01 17:57N 00°02' W 050°59'0 0.0
2018-May-01 17:27N 00°02' W 050°59'0 0.3
2018-May-01 16:57N 00°03' W 050°59'0 0.2
2018-May-01 16:30N 00°03' W 050°59'0 0.1
2018-May-01 16:00N 00°03' W 050°59'0 0.0
2018-May-01 15:27N 00°03' W 050°59'0 0.0
2018-May-01 15:00N 00°03' W 050°59'0 0.0
2018-May-01 14:27N 00°03' W 050°59'0 0.0
2018-May-01 13:57N 00°03' W 050°59'0 0.0
2018-May-01 13:24N 00°03' W 050°59'0 0.0
2018-May-01 13:00N 00°03' W 050°59'0 0.0
2018-May-01 12:30N 00°03' W 050°59'0 0.0
2018-May-01 11:48N 00°03' W 050°59'0 0.0
2018-May-01 11:24N 00°03' W 050°59'0 0.0
2018-May-01 10:54N 00°03' W 050°59'0 0.0
2018-May-01 10:30N 00°03' W 050°59'0 0.0
2018-May-01 10:00N 00°03' W 050°59'0 0.0
2018-May-01 09:30N 00°03' W 050°59'0 0.1
2018-May-01 09:00N 00°02' W 050°59'0 0.4
2018-May-01 08:30N 00°02' W 050°59'0 0.1
2018-May-01 08:00N 00°02' W 050°59'0 0.0
2018-May-01 07:30N 00°02' W 050°59'0 0.0
2018-May-01 07:00N 00°02' W 050°59'0 0.0
2018-May-01 06:30N 00°02' W 050°59'0 0.0
2018-May-01 05:54N 00°02' W 050°59'0 0.0
2018-May-01 05:30N 00°02' W 050°59'0 0.0
2018-May-01 05:00N 00°02' W 050°59'0 0.4
2018-May-01 04:24N 00°03' W 050°59'0 0.1
2018-May-01 03:54N 00°03' W 050°59'0 0.0
2018-May-01 03:21N 00°03' W 050°59'0 0.1
2018-May-01 03:00N 00°03' W 050°59'0 0.0
2018-May-01 02:30N 00°03' W 050°59'0 0.0
2018-May-01 01:57N 00°03' W 050°59'0 0.0
2018-May-01 01:24N 00°03' W 050°59'0 0.0
2018-May-01 00:54N 00°03' W 050°59'0 0.0
2018-May-01 00:30N 00°03' W 050°59'0 0.1
2018-May-01 00:00N 00°03' W 050°59'1 1.6
2018-Apr-30 23:30N 00°02' W 050°59'4 8.4
2018-Apr-30 22:59S 00°01' W 051°02'510.1
2018-Apr-30 22:30S 00°04' W 051°06'0 0.8
2018-Apr-30 21:59S 00°04' W 051°07'0 0.0
2018-Apr-30 21:29S 00°04' W 051°07'0 0.2
2018-Apr-30 20:53S 00°04' W 051°07'0 0.2
2018-Apr-30 19:35S 00°04' W 051°07'0 0.0
2018-Apr-30 19:29S 00°04' W 051°07'0 0.0
2018-Apr-30 19:00S 00°04' W 051°07'0 0.0
2018-Apr-30 18:29S 00°04' W 051°07'0 0.0
2018-Apr-30 18:00S 00°04' W 051°07'0 0.1
2018-Apr-30 17:24S 00°04' W 051°07'1 1.9
2018-Apr-30 17:00S 00°04' W 051°06'2 3.9
2018-Apr-30 16:30S 00°03' W 051°05'3 6.8
2018-Apr-30 15:59S 00°01' W 051°02'3 5.4
2018-Apr-30 15:28N 00°02' W 051°01'3 5.8
2018-Apr-30 15:00N 00°04' W 050°59'3 5.5
2018-Apr-30 14:30N 00°06' W 050°58'2 4.2
2018-Apr-30 14:00N 00°08' W 050°57'3 5.1
2018-Apr-30 13:30N 00°09' W 050°55'2 4.2
2018-Apr-30 13:00N 00°10' W 050°53'3 6.1
2018-Apr-30 12:28N 00°10' W 050°49'  

Dump ship's entire track history